sensor_id;sensor_type;location;lat;lon;timestamp;pressure;altitude;pressure_sealevel;temperature;humidity
11692;BME280;33659;42.672;23.354;2023-05-01T00:02:08;94320.03;;;14.45;60.33
11692;BME280;33659;42.672;23.354;2023-05-01T00:04:35;94332.84;;;14.47;60.22
11692;BME280;33659;42.672;23.354;2023-05-01T00:07:02;94323.91;;;14.51;60.10
11692;BME280;33659;42.672;23.354;2023-05-01T00:09:30;94326.16;;;14.49;60.10
11692;BME280;33659;42.672;23.354;2023-05-01T00:11:57;94329.81;;;14.45;60.23
11692;BME280;33659;42.672;23.354;2023-05-01T00:14:24;94331.25;;;14.42;60.37
11692;BME280;33659;42.672;23.354;2023-05-01T00:16:50;94329.03;;;14.44;60.43
11692;BME280;33659;42.672;23.354;2023-05-01T00:19:17;94314.72;;;14.42;60.33
11692;BME280;33659;42.672;23.354;2023-05-01T00:21:44;94329.22;;;14.55;60.11
11692;BME280;33659;42.672;23.354;2023-05-01T00:24:12;94334.53;;;14.58;59.93
11692;BME280;33659;42.672;23.354;2023-05-01T00:26:40;94332.97;;;14.54;60.15
11692;BME280;33659;42.672;23.354;2023-05-01T00:29:07;94339.97;;;14.46;60.28
11692;BME280;33659;42.672;23.354;2023-05-01T00:31:34;94330.44;;;14.38;60.63
11692;BME280;33659;42.672;23.354;2023-05-01T00:34:00;94342.72;;;14.30;60.86
11692;BME280;33659;42.672;23.354;2023-05-01T00:36:28;94338.50;;;14.26;61.21
11692;BME280;33659;42.672;23.354;2023-05-01T00:38:56;94340.25;;;14.18;61.49
11692;BME280;33659;42.672;23.354;2023-05-01T00:41:22;94340.59;;;14.17;61.69
11692;BME280;33659;42.672;23.354;2023-05-01T00:43:50;94342.13;;;14.18;61.73
11692;BME280;33659;42.672;23.354;2023-05-01T00:46:17;94341.81;;;14.23;61.62
11692;BME280;33659;42.672;23.354;2023-05-01T00:48:44;94347.50;;;14.25;61.47
11692;BME280;33659;42.672;23.354;2023-05-01T00:51:11;94353.91;;;14.27;61.41
11692;BME280;33659;42.672;23.354;2023-05-01T00:53:39;94347.78;;;14.20;61.83
11692;BME280;33659;42.672;23.354;2023-05-01T00:56:06;94347.66;;;14.13;61.95
11692;BME280;33659;42.672;23.354;2023-05-01T00:58:33;94350.09;;;14.02;62.23
11692;BME280;33659;42.672;23.354;2023-05-01T01:01:01;94350.72;;;13.95;62.62
11692;BME280;33659;42.672;23.354;2023-05-01T01:03:29;94360.63;;;13.82;63.07
11692;BME280;33659;42.672;23.354;2023-05-01T01:06:03;94356.09;;;13.79;63.26
11692;BME280;33659;42.672;23.354;2023-05-01T01:08:35;94366.28;;;13.85;63.34
11692;BME280;33659;42.672;23.354;2023-05-01T01:11:13;94366.22;;;13.81;63.36
11692;BME280;33659;42.672;23.354;2023-05-01T01:13:46;94356.59;;;13.66;63.70
11692;BME280;33659;42.672;23.354;2023-05-01T01:16:22;94360.16;;;13.77;63.73
11692;BME280;33659;42.672;23.354;2023-05-01T01:18:57;94370.00;;;13.83;63.63
11692;BME280;33659;42.672;23.354;2023-05-01T01:21:30;94376.19;;;13.91;63.45
11692;BME280;33659;42.672;23.354;2023-05-01T01:24:20;94369.59;;;14.01;63.29
11692;BME280;33659;42.672;23.354;2023-05-01T01:27:30;94375.31;;;14.06;63.13
11692;BME280;33659;42.672;23.354;2023-05-01T01:30:29;94374.59;;;14.09;63.12
11692;BME280;33659;42.672;23.354;2023-05-01T01:33:21;94355.41;;;14.05;63.06
11692;BME280;33659;42.672;23.354;2023-05-01T01:35:54;94374.88;;;14.24;62.97
11692;BME280;33659;42.672;23.354;2023-05-01T01:38:27;94367.41;;;14.26;62.89
11692;BME280;33659;42.672;23.354;2023-05-01T01:40:59;94373.41;;;14.26;62.71
11692;BME280;33659;42.672;23.354;2023-05-01T01:43:33;94373.75;;;14.25;62.78
11692;BME280;33659;42.672;23.354;2023-05-01T01:46:05;94371.13;;;14.25;63.05
11692;BME280;33659;42.672;23.354;2023-05-01T01:48:35;94371.94;;;14.29;62.84
11692;BME280;33659;42.672;23.354;2023-05-01T01:51:07;94371.25;;;14.32;62.67
11692;BME280;33659;42.672;23.354;2023-05-01T01:53:36;94371.38;;;14.39;62.74
11692;BME280;33659;42.672;23.354;2023-05-01T01:56:06;94360.50;;;14.41;63.71
11692;BME280;33659;42.672;23.354;2023-05-01T01:58:35;94366.09;;;14.16;65.05
11692;BME280;33659;42.672;23.354;2023-05-01T02:01:04;94364.59;;;13.73;67.19
11692;BME280;33659;42.672;23.354;2023-05-01T02:03:32;94360.84;;;13.35;67.97
11692;BME280;33659;42.672;23.354;2023-05-01T02:06:00;94361.38;;;13.25;67.62
11692;BME280;33659;42.672;23.354;2023-05-01T02:08:29;94365.69;;;13.17;68.47
11692;BME280;33659;42.672;23.354;2023-05-01T02:10:58;94367.72;;;13.24;68.50
11692;BME280;33659;42.672;23.354;2023-05-01T02:13:26;94362.63;;;13.31;68.61
11692;BME280;33659;42.672;23.354;2023-05-01T02:15:55;94366.91;;;13.39;68.73
11692;BME280;33659;42.672;23.354;2023-05-01T02:18:24;94366.38;;;13.49;68.62
11692;BME280;33659;42.672;23.354;2023-05-01T02:20:52;94367.25;;;13.57;68.30
11692;BME280;33659;42.672;23.354;2023-05-01T02:23:19;94368.91;;;13.65;68.28
11692;BME280;33659;42.672;23.354;2023-05-01T02:25:48;94366.78;;;13.71;68.18
11692;BME280;33659;42.672;23.354;2023-05-01T02:28:20;94360.00;;;13.70;68.16
11692;BME280;33659;42.672;23.354;2023-05-01T02:30:48;94367.63;;;13.75;68.19
11692;BME280;33659;42.672;23.354;2023-05-01T02:33:15;94366.16;;;13.77;67.99
11692;BME280;33659;42.672;23.354;2023-05-01T02:35:42;94368.72;;;13.74;68.12
11692;BME280;33659;42.672;23.354;2023-05-01T02:38:09;94364.44;;;13.66;68.21
11692;BME280;33659;42.672;23.354;2023-05-01T02:40:38;94368.25;;;13.68;68.28
11692;BME280;33659;42.672;23.354;2023-05-01T02:43:08;94368.38;;;13.75;68.10
11692;BME280;33659;42.672;23.354;2023-05-01T02:45:37;94367.25;;;13.76;67.88
11692;BME280;33659;42.672;23.354;2023-05-01T02:48:05;94365.41;;;13.77;68.15
11692;BME280;33659;42.672;23.354;2023-05-01T02:50:33;94364.72;;;13.80;68.25
11692;BME280;33659;42.672;23.354;2023-05-01T02:53:01;94364.63;;;13.76;68.08
11692;BME280;33659;42.672;23.354;2023-05-01T02:55:29;94369.41;;;13.71;67.55
11692;BME280;33659;42.672;23.354;2023-05-01T02:57:57;94374.59;;;13.67;66.88
11692;BME280;33659;42.672;23.354;2023-05-01T03:00:25;94366.66;;;13.64;66.74
11692;BME280;33659;42.672;23.354;2023-05-01T03:02:52;94372.66;;;13.64;66.36
11692;BME280;33659;42.672;23.354;2023-05-01T03:05:18;94374.13;;;13.62;66.14
11692;BME280;33659;42.672;23.354;2023-05-01T03:07:45;94375.63;;;13.63;65.82
11692;BME280;33659;42.672;23.354;2023-05-01T03:10:12;94385.72;;;13.61;66.11
11692;BME280;33659;42.672;23.354;2023-05-01T03:12:39;94381.09;;;13.54;66.34
11692;BME280;33659;42.672;23.354;2023-05-01T03:15:07;94379.69;;;13.41;66.89
11692;BME280;33659;42.672;23.354;2023-05-01T03:17:36;94379.22;;;13.35;67.31
11692;BME280;33659;42.672;23.354;2023-05-01T03:20:03;94385.13;;;13.32;67.68
11692;BME280;33659;42.672;23.354;2023-05-01T03:22:30;94386.50;;;13.26;67.91
11692;BME280;33659;42.672;23.354;2023-05-01T03:24:57;94381.53;;;13.21;68.15
11692;BME280;33659;42.672;23.354;2023-05-01T03:27:24;94384.16;;;13.21;68.37
11692;BME280;33659;42.672;23.354;2023-05-01T03:29:51;94391.28;;;13.20;68.48
11692;BME280;33659;42.672;23.354;2023-05-01T03:32:17;94398.78;;;13.22;68.36
11692;BME280;33659;42.672;23.354;2023-05-01T03:34:45;94396.66;;;13.27;68.01
11692;BME280;33659;42.672;23.354;2023-05-01T03:37:12;94398.09;;;13.25;67.82
11692;BME280;33659;42.672;23.354;2023-05-01T03:39:39;94406.19;;;13.20;68.04
11692;BME280;33659;42.672;23.354;2023-05-01T03:42:06;94406.78;;;13.13;68.09
11692;BME280;33659;42.672;23.354;2023-05-01T03:44:32;94398.53;;;13.11;68.14
11692;BME280;33659;42.672;23.354;2023-05-01T03:46:59;94406.75;;;13.10;68.00
11692;BME280;33659;42.672;23.354;2023-05-01T03:49:26;94403.00;;;13.11;68.10
11692;BME280;33659;42.672;23.354;2023-05-01T03:51:54;94406.03;;;13.13;67.89
11692;BME280;33659;42.672;23.354;2023-05-01T03:54:21;94411.03;;;13.18;67.72
11692;BME280;33659;42.672;23.354;2023-05-01T03:56:47;94408.59;;;13.25;67.22
11692;BME280;33659;42.672;23.354;2023-05-01T03:59:14;94413.00;;;13.21;67.23
11692;BME280;33659;42.672;23.354;2023-05-01T04:01:41;94425.09;;;12.94;68.54
11692;BME280;33659;42.672;23.354;2023-05-01T04:04:08;94427.56;;;12.71;69.54
11692;BME280;33659;42.672;23.354;2023-05-01T04:06:35;94414.28;;;12.48;70.54
11692;BME280;33659;42.672;23.354;2023-05-01T04:09:03;94417.06;;;12.39;71.32
11692;BME280;33659;42.672;23.354;2023-05-01T04:11:30;94418.44;;;12.33;71.60
11692;BME280;33659;42.672;23.354;2023-05-01T04:13:56;94418.25;;;12.42;71.25
11692;BME280;33659;42.672;23.354;2023-05-01T04:16:23;94420.03;;;12.38;71.29
11692;BME280;33659;42.672;23.354;2023-05-01T04:18:50;94413.59;;;12.19;72.33
11692;BME280;33659;42.672;23.354;2023-05-01T04:21:17;94412.72;;;12.15;72.62
11692;BME280;33659;42.672;23.354;2023-05-01T04:23:44;94421.34;;;12.16;72.36
11692;BME280;33659;42.672;23.354;2023-05-01T04:26:12;94419.94;;;12.18;72.96
11692;BME280;33659;42.672;23.354;2023-05-01T04:28:39;94419.47;;;12.44;72.45
11692;BME280;33659;42.672;23.354;2023-05-01T04:31:05;94416.34;;;12.70;71.56
11692;BME280;33659;42.672;23.354;2023-05-01T04:33:32;94419.94;;;12.97;70.37
11692;BME280;33659;42.672;23.354;2023-05-01T04:35:59;94426.53;;;13.23;69.63
11692;BME280;33659;42.672;23.354;2023-05-01T04:38:26;94428.84;;;13.44;68.32
11692;BME280;33659;42.672;23.354;2023-05-01T04:40:53;94429.63;;;13.64;67.31
11692;BME280;33659;42.672;23.354;2023-05-01T04:43:21;94430.19;;;13.73;66.98
11692;BME280;33659;42.672;23.354;2023-05-01T04:45:48;94438.06;;;13.92;66.33
11692;BME280;33659;42.672;23.354;2023-05-01T04:48:15;94434.13;;;14.02;66.05
11692;BME280;33659;42.672;23.354;2023-05-01T04:50:41;94444.88;;;14.16;65.18
11692;BME280;33659;42.672;23.354;2023-05-01T04:53:08;94443.22;;;14.27;65.09
11692;BME280;33659;42.672;23.354;2023-05-01T04:55:35;94445.69;;;14.40;64.74
11692;BME280;33659;42.672;23.354;2023-05-01T04:58:02;94450.06;;;14.51;64.23
11692;BME280;33659;42.672;23.354;2023-05-01T05:00:30;94445.94;;;14.54;64.13
11692;BME280;33659;42.672;23.354;2023-05-01T05:02:57;94451.69;;;14.59;63.94
11692;BME280;33659;42.672;23.354;2023-05-01T05:05:23;94456.25;;;14.62;63.64
11692;BME280;33659;42.672;23.354;2023-05-01T05:07:50;94444.00;;;14.70;63.37
11692;BME280;33659;42.672;23.354;2023-05-01T05:10:17;94443.22;;;14.70;62.90
11692;BME280;33659;42.672;23.354;2023-05-01T05:12:43;94452.38;;;14.79;62.91
11692;BME280;33659;42.672;23.354;2023-05-01T05:15:10;94461.31;;;14.75;62.86
11692;BME280;33659;42.672;23.354;2023-05-01T05:17:38;94464.72;;;14.75;63.07
11692;BME280;33659;42.672;23.354;2023-05-01T05:20:07;94476.81;;;14.80;62.93
11692;BME280;33659;42.672;23.354;2023-05-01T05:22:34;94465.72;;;14.90;62.40
11692;BME280;33659;42.672;23.354;2023-05-01T05:25:01;94467.69;;;14.97;61.95
11692;BME280;33659;42.672;23.354;2023-05-01T05:27:29;94469.31;;;15.05;61.83
11692;BME280;33659;42.672;23.354;2023-05-01T05:30:00;94476.63;;;15.15;61.61
11692;BME280;33659;42.672;23.354;2023-05-01T05:32:27;94481.88;;;15.15;61.23
11692;BME280;33659;42.672;23.354;2023-05-01T05:34:57;94485.41;;;15.26;61.21
11692;BME280;33659;42.672;23.354;2023-05-01T05:37:23;94475.34;;;15.32;60.91
11692;BME280;33659;42.672;23.354;2023-05-01T05:39:50;94479.53;;;15.33;60.99
11692;BME280;33659;42.672;23.354;2023-05-01T05:42:17;94473.94;;;15.38;60.60
11692;BME280;33659;42.672;23.354;2023-05-01T05:44:44;94480.28;;;15.33;61.11
11692;BME280;33659;42.672;23.354;2023-05-01T05:47:10;94474.25;;;15.33;60.91
11692;BME280;33659;42.672;23.354;2023-05-01T05:49:37;94479.00;;;15.24;61.21
11692;BME280;33659;42.672;23.354;2023-05-01T05:52:05;94480.56;;;15.28;62.57
11692;BME280;33659;42.672;23.354;2023-05-01T05:54:32;94485.97;;;15.39;61.83
11692;BME280;33659;42.672;23.354;2023-05-01T05:56:58;94488.78;;;15.50;61.49
11692;BME280;33659;42.672;23.354;2023-05-01T05:59:25;94485.88;;;15.58;61.73
11692;BME280;33659;42.672;23.354;2023-05-01T06:01:52;94487.94;;;15.68;61.39
11692;BME280;33659;42.672;23.354;2023-05-01T06:04:18;94493.28;;;15.76;60.75
11692;BME280;33659;42.672;23.354;2023-05-01T06:06:45;94493.69;;;15.78;61.31
11692;BME280;33659;42.672;23.354;2023-05-01T06:09:13;94496.53;;;15.92;60.50
11692;BME280;33659;42.672;23.354;2023-05-01T06:11:41;94486.75;;;15.92;60.33
11692;BME280;33659;42.672;23.354;2023-05-01T06:14:08;94500.00;;;16.00;59.88
11692;BME280;33659;42.672;23.354;2023-05-01T06:16:35;94502.25;;;15.97;60.17
11692;BME280;33659;42.672;23.354;2023-05-01T06:19:02;94501.91;;;16.03;60.46
11692;BME280;33659;42.672;23.354;2023-05-01T06:21:28;94497.06;;;16.08;59.82
11692;BME280;33659;42.672;23.354;2023-05-01T06:23:56;94503.16;;;16.12;59.84
11692;BME280;33659;42.672;23.354;2023-05-01T06:26:24;94504.38;;;16.18;59.96
11692;BME280;33659;42.672;23.354;2023-05-01T06:28:52;94503.00;;;16.32;59.20
11692;BME280;33659;42.672;23.354;2023-05-01T06:31:19;94499.72;;;16.42;58.97
11692;BME280;33659;42.672;23.354;2023-05-01T06:33:46;94502.44;;;16.49;58.94
11692;BME280;33659;42.672;23.354;2023-05-01T06:36:13;94509.31;;;16.57;59.17
11692;BME280;33659;42.672;23.354;2023-05-01T06:38:40;94501.78;;;16.59;58.52
11692;BME280;33659;42.672;23.354;2023-05-01T06:41:13;94503.72;;;16.62;58.32
11692;BME280;33659;42.672;23.354;2023-05-01T06:43:41;94503.28;;;16.60;58.22
11692;BME280;33659;42.672;23.354;2023-05-01T06:46:07;94506.38;;;16.66;58.24
11692;BME280;33659;42.672;23.354;2023-05-01T06:48:34;94509.16;;;16.76;58.14
11692;BME280;33659;42.672;23.354;2023-05-01T06:51:00;94508.47;;;16.83;57.86
11692;BME280;33659;42.672;23.354;2023-05-01T06:53:27;94500.53;;;16.83;57.69
11692;BME280;33659;42.672;23.354;2023-05-01T06:55:54;94504.31;;;16.82;58.09
11692;BME280;33659;42.672;23.354;2023-05-01T06:58:20;94502.00;;;16.77;57.73
11692;BME280;33659;42.672;23.354;2023-05-01T07:00:49;94502.38;;;16.79;58.40
11692;BME280;33659;42.672;23.354;2023-05-01T07:03:15;94502.81;;;16.85;58.41
11692;BME280;33659;42.672;23.354;2023-05-01T07:05:42;94506.56;;;16.84;58.60
11692;BME280;33659;42.672;23.354;2023-05-01T07:08:09;94510.41;;;16.90;57.76
11692;BME280;33659;42.672;23.354;2023-05-01T07:10:35;94511.97;;;16.94;58.07
11692;BME280;33659;42.672;23.354;2023-05-01T07:13:02;94511.66;;;17.03;57.33
11692;BME280;33659;42.672;23.354;2023-05-01T07:15:29;94512.78;;;17.02;57.69
11692;BME280;33659;42.672;23.354;2023-05-01T07:17:57;94521.88;;;17.08;57.39
11692;BME280;33659;42.672;23.354;2023-05-01T07:20:25;94518.50;;;17.11;57.29
11692;BME280;33659;42.672;23.354;2023-05-01T07:22:52;94526.47;;;17.18;56.95
11692;BME280;33659;42.672;23.354;2023-05-01T07:25:18;94517.41;;;17.19;56.91
11692;BME280;33659;42.672;23.354;2023-05-01T07:27:45;94527.22;;;17.15;57.26
11692;BME280;33659;42.672;23.354;2023-05-01T07:30:12;94519.31;;;17.19;57.61
11692;BME280;33659;42.672;23.354;2023-05-01T07:32:39;94526.19;;;17.30;57.45
11692;BME280;33659;42.672;23.354;2023-05-01T07:35:07;94517.97;;;17.39;56.67
11692;BME280;33659;42.672;23.354;2023-05-01T07:37:34;94520.25;;;17.41;56.49
11692;BME280;33659;42.672;23.354;2023-05-01T07:40:01;94524.44;;;17.49;56.62
11692;BME280;33659;42.672;23.354;2023-05-01T07:42:28;94518.81;;;17.57;56.32
11692;BME280;33659;42.672;23.354;2023-05-01T07:44:55;94524.19;;;17.68;55.79
11692;BME280;33659;42.672;23.354;2023-05-01T07:47:21;94519.00;;;17.79;54.72
11692;BME280;33659;42.672;23.354;2023-05-01T07:49:48;94511.84;;;17.83;54.49
11692;BME280;33659;42.672;23.354;2023-05-01T07:52:16;94516.41;;;17.86;54.48
11692;BME280;33659;42.672;23.354;2023-05-01T07:54:48;94523.56;;;17.85;55.02
11692;BME280;33659;42.672;23.354;2023-05-01T07:57:15;94520.16;;;17.81;54.82
11692;BME280;33659;42.672;23.354;2023-05-01T07:59:41;94524.28;;;17.79;55.29
11692;BME280;33659;42.672;23.354;2023-05-01T08:02:08;94516.75;;;17.81;54.85
11692;BME280;33659;42.672;23.354;2023-05-01T08:04:35;94517.88;;;17.83;55.32
11692;BME280;33659;42.672;23.354;2023-05-01T08:07:01;94520.91;;;17.82;56.15
11692;BME280;33659;42.672;23.354;2023-05-01T08:09:29;94514.44;;;17.72;57.01
11692;BME280;33659;42.672;23.354;2023-05-01T08:11:56;94515.47;;;17.64;57.88
11692;BME280;33659;42.672;23.354;2023-05-01T08:14:23;94515.84;;;17.63;57.93
11692;BME280;33659;42.672;23.354;2023-05-01T08:16:49;94520.84;;;17.71;57.30
11692;BME280;33659;42.672;23.354;2023-05-01T08:19:19;94524.25;;;17.75;56.51
11692;BME280;33659;42.672;23.354;2023-05-01T08:21:46;94518.59;;;17.73;56.74
11692;BME280;33659;42.672;23.354;2023-05-01T08:24:13;94523.13;;;17.76;55.03
11692;BME280;33659;42.672;23.354;2023-05-01T08:26:41;94519.75;;;17.79;53.83
11692;BME280;33659;42.672;23.354;2023-05-01T08:29:08;94514.16;;;17.88;52.72
11692;BME280;33659;42.672;23.354;2023-05-01T08:31:35;94519.09;;;17.93;51.13
11692;BME280;33659;42.672;23.354;2023-05-01T08:34:03;94518.69;;;17.95;50.29
11692;BME280;33659;42.672;23.354;2023-05-01T08:36:30;94514.97;;;18.03;49.90
11692;BME280;33659;42.672;23.354;2023-05-01T08:38:57;94512.38;;;18.13;49.87
11692;BME280;33659;42.672;23.354;2023-05-01T08:41:26;94516.59;;;18.25;50.06
11692;BME280;33659;42.672;23.354;2023-05-01T08:43:55;94510.53;;;18.25;49.60
11692;BME280;33659;42.672;23.354;2023-05-01T08:46:28;94512.81;;;18.26;49.60
11692;BME280;33659;42.672;23.354;2023-05-01T08:48:57;94512.03;;;18.22;50.03
11692;BME280;33659;42.672;23.354;2023-05-01T08:51:25;94511.63;;;18.13;50.03
11692;BME280;33659;42.672;23.354;2023-05-01T08:53:55;94510.88;;;18.16;50.44
11692;BME280;33659;42.672;23.354;2023-05-01T08:56:24;94509.75;;;18.17;51.12
11692;BME280;33659;42.672;23.354;2023-05-01T08:58:53;94507.84;;;18.14;51.91
11692;BME280;33659;42.672;23.354;2023-05-01T09:01:21;94513.91;;;18.18;52.00
11692;BME280;33659;42.672;23.354;2023-05-01T09:03:49;94496.91;;;18.12;51.83
11692;BME280;33659;42.672;23.354;2023-05-01T09:06:18;94501.44;;;18.11;51.97
11692;BME280;33659;42.672;23.354;2023-05-01T09:08:45;94496.91;;;18.16;50.59
11692;BME280;33659;42.672;23.354;2023-05-01T09:11:12;94490.50;;;18.20;49.81
11692;BME280;33659;42.672;23.354;2023-05-01T09:13:39;94498.06;;;18.18;50.06
11692;BME280;33659;42.672;23.354;2023-05-01T09:16:07;94495.38;;;18.14;51.28
11692;BME280;33659;42.672;23.354;2023-05-01T09:18:34;94502.94;;;18.16;50.98
11692;BME280;33659;42.672;23.354;2023-05-01T09:21:01;94496.16;;;18.15;50.43
11692;BME280;33659;42.672;23.354;2023-05-01T09:23:28;94496.16;;;18.22;50.38
11692;BME280;33659;42.672;23.354;2023-05-01T09:25:55;94501.84;;;18.21;50.42
11692;BME280;33659;42.672;23.354;2023-05-01T09:28:38;94503.75;;;18.24;50.72
11692;BME280;33659;42.672;23.354;2023-05-01T09:31:19;94504.50;;;18.28;50.78
11692;BME280;33659;42.672;23.354;2023-05-01T09:33:54;94501.50;;;18.33;50.07
11692;BME280;33659;42.672;23.354;2023-05-01T09:36:22;94495.84;;;18.34;49.91
11692;BME280;33659;42.672;23.354;2023-05-01T09:38:49;94501.53;;;18.44;49.72
11692;BME280;33659;42.672;23.354;2023-05-01T09:41:17;94501.56;;;18.51;49.71
11692;BME280;33659;42.672;23.354;2023-05-01T09:43:48;94494.78;;;18.60;49.31
11692;BME280;33659;42.672;23.354;2023-05-01T09:46:16;94502.00;;;18.71;49.44
11692;BME280;33659;42.672;23.354;2023-05-01T09:48:51;94484.63;;;18.73;49.79
11692;BME280;33659;42.672;23.354;2023-05-01T09:51:20;94493.69;;;18.72;50.02
11692;BME280;33659;42.672;23.354;2023-05-01T09:53:48;94495.59;;;18.75;49.39
11692;BME280;33659;42.672;23.354;2023-05-01T09:56:14;94493.72;;;18.83;49.46
11692;BME280;33659;42.672;23.354;2023-05-01T09:58:41;94494.13;;;18.96;49.17
11692;BME280;33659;42.672;23.354;2023-05-01T10:01:08;94491.47;;;19.03;48.43
11692;BME280;33659;42.672;23.354;2023-05-01T10:03:36;94487.28;;;19.05;47.55
11692;BME280;33659;42.672;23.354;2023-05-01T10:06:03;94489.56;;;19.03;47.73
11692;BME280;33659;42.672;23.354;2023-05-01T10:08:46;94485.41;;;19.06;47.86
11692;BME280;33659;42.672;23.354;2023-05-01T10:11:12;94488.44;;;19.11;47.60
11692;BME280;33659;42.672;23.354;2023-05-01T10:13:39;94483.91;;;19.15;47.21
11692;BME280;33659;42.672;23.354;2023-05-01T10:16:07;94477.47;;;19.24;47.21
11692;BME280;33659;42.672;23.354;2023-05-01T10:18:55;94481.25;;;19.26;47.32
11692;BME280;33659;42.672;23.354;2023-05-01T10:21:22;94474.84;;;19.27;47.19
11692;BME280;33659;42.672;23.354;2023-05-01T10:23:49;94476.72;;;19.34;47.31
11692;BME280;33659;42.672;23.354;2023-05-01T10:26:17;94469.50;;;19.38;46.96
11692;BME280;33659;42.672;23.354;2023-05-01T10:28:46;94468.38;;;19.46;48.92
11692;BME280;33659;42.672;23.354;2023-05-01T10:31:13;94466.84;;;19.56;45.99
11692;BME280;33659;42.672;23.354;2023-05-01T10:33:41;94465.34;;;19.65;46.24
11692;BME280;33659;42.672;23.354;2023-05-01T10:36:13;94469.47;;;19.77;46.45
11692;BME280;33659;42.672;23.354;2023-05-01T10:38:42;94472.44;;;19.93;44.92
11692;BME280;33659;42.672;23.354;2023-05-01T10:41:13;94468.25;;;20.03;43.47
11692;BME280;33659;42.672;23.354;2023-05-01T10:43:39;94464.78;;;20.13;41.46
11692;BME280;33659;42.672;23.354;2023-05-01T10:46:25;94484.47;;;20.23;40.60
11692;BME280;33659;42.672;23.354;2023-05-01T10:48:56;94469.66;;;20.29;40.25
11692;BME280;33659;42.672;23.354;2023-05-01T10:51:24;94462.78;;;20.39;39.75
11692;BME280;33659;42.672;23.354;2023-05-01T10:54:23;94462.38;;;20.47;39.37
11692;BME280;33659;42.672;23.354;2023-05-01T10:56:51;94471.16;;;20.34;42.59
11692;BME280;33659;42.672;23.354;2023-05-01T10:59:18;94465.94;;;20.16;43.17
11692;BME280;33659;42.672;23.354;2023-05-01T11:01:46;94472.81;;;19.95;44.31
11692;BME280;33659;42.672;23.354;2023-05-01T11:04:46;94470.25;;;19.67;45.03
11692;BME280;33659;42.672;23.354;2023-05-01T11:07:20;94443.03;;;19.52;44.73
11692;BME280;33659;42.672;23.354;2023-05-01T11:09:48;94467.56;;;19.81;43.79
11692;BME280;33659;42.672;23.354;2023-05-01T11:12:49;94465.66;;;19.82;43.84
11692;BME280;33659;42.672;23.354;2023-05-01T11:15:27;94455.50;;;19.66;43.57
11692;BME280;33659;42.672;23.354;2023-05-01T11:17:54;94472.91;;;19.67;44.13
11692;BME280;33659;42.672;23.354;2023-05-01T11:20:49;94468.34;;;19.78;43.27
11692;BME280;33659;42.672;23.354;2023-05-01T11:23:18;94467.13;;;20.00;41.96
11692;BME280;33659;42.672;23.354;2023-05-01T11:25:46;94465.56;;;20.14;41.88
11692;BME280;33659;42.672;23.354;2023-05-01T11:28:18;94468.53;;;20.30;41.83
11692;BME280;33659;42.672;23.354;2023-05-01T11:30:46;94467.03;;;20.29;42.07
11692;BME280;33659;42.672;23.354;2023-05-01T11:33:20;94467.38;;;20.31;42.11
11692;BME280;33659;42.672;23.354;2023-05-01T11:35:56;94466.56;;;20.41;41.52
11692;BME280;33659;42.672;23.354;2023-05-01T11:38:24;94467.03;;;20.29;42.05
11692;BME280;33659;42.672;23.354;2023-05-01T11:40:53;94459.06;;;20.22;41.49
11692;BME280;33659;42.672;23.354;2023-05-01T11:43:21;94459.84;;;20.15;41.38
11692;BME280;33659;42.672;23.354;2023-05-01T11:45:51;94460.94;;;20.28;41.88
11692;BME280;33659;42.672;23.354;2023-05-01T11:48:20;94457.53;;;20.32;41.41
11692;BME280;33659;42.672;23.354;2023-05-01T11:50:47;94459.84;;;20.22;41.20
11692;BME280;33659;42.672;23.354;2023-05-01T11:53:14;94460.50;;;20.41;41.48
11692;BME280;33659;42.672;23.354;2023-05-01T11:55:43;94458.91;;;20.58;40.97
11692;BME280;33659;42.672;23.354;2023-05-01T11:58:11;94451.03;;;20.43;40.48
11692;BME280;33659;42.672;23.354;2023-05-01T12:00:39;94461.75;;;20.18;41.35
11692;BME280;33659;42.672;23.354;2023-05-01T12:03:08;94459.06;;;20.22;40.90
11692;BME280;33659;42.672;23.354;2023-05-01T12:05:36;94457.25;;;20.12;40.76
11692;BME280;33659;42.672;23.354;2023-05-01T12:08:11;94461.44;;;20.06;41.26
11692;BME280;33659;42.672;23.354;2023-05-01T12:10:39;94471.19;;;20.26;40.81
11692;BME280;33659;42.672;23.354;2023-05-01T12:13:09;94476.56;;;20.16;39.53
11692;BME280;33659;42.672;23.354;2023-05-01T12:15:38;94469.75;;;20.11;39.28
11692;BME280;33659;42.672;23.354;2023-05-01T12:18:05;94480.34;;;20.08;39.45
11692;BME280;33659;42.672;23.354;2023-05-01T12:20:36;94480.28;;;20.22;39.65
11692;BME280;33659;42.672;23.354;2023-05-01T12:23:03;94479.97;;;20.13;39.37
11692;BME280;33659;42.672;23.354;2023-05-01T12:25:31;94475.09;;;19.93;39.45
11692;BME280;33659;42.672;23.354;2023-05-01T12:27:59;94481.97;;;19.80;39.37
11692;BME280;33659;42.672;23.354;2023-05-01T12:30:28;94476.31;;;19.49;39.48
11692;BME280;33659;42.672;23.354;2023-05-01T12:32:55;94474.44;;;19.39;40.18
11692;BME280;33659;42.672;23.354;2023-05-01T12:35:28;94480.50;;;19.33;40.13
11692;BME280;33659;42.672;23.354;2023-05-01T12:37:55;94484.28;;;19.35;40.44
11692;BME280;33659;42.672;23.354;2023-05-01T12:40:22;94485.03;;;19.43;42.28
11692;BME280;33659;42.672;23.354;2023-05-01T12:42:56;94460.03;;;19.51;43.04
11692;BME280;33659;42.672;23.354;2023-05-01T12:45:23;94485.69;;;20.00;42.66
11692;BME280;33659;42.672;23.354;2023-05-01T12:47:51;94484.75;;;20.43;41.56
11692;BME280;33659;42.672;23.354;2023-05-01T12:50:19;94478.47;;;20.85;40.97
11692;BME280;33659;42.672;23.354;2023-05-01T12:52:46;94477.06;;;21.18;40.98
11692;BME280;33659;42.672;23.354;2023-05-01T12:55:13;94474.63;;;21.42;39.97
11692;BME280;33659;42.672;23.354;2023-05-01T12:57:51;94482.19;;;21.47;39.87
11692;BME280;33659;42.672;23.354;2023-05-01T13:00:18;94468.22;;;21.39;40.35